sensor_id;sensor_type;location;lat;lon;timestamp;P1;durP1;ratioP1;P2;durP2;ratioP2
8885;SDS011;4479;51.162;13.906;2022-08-03T00:00:08;1.87;;;1.77;;
8885;SDS011;4479;51.162;13.906;2022-08-03T00:10:14;3.37;;;1.37;;
8885;SDS011;4479;51.162;13.906;2022-08-03T00:20:18;1.70;;;1.60;;
8885;SDS011;4479;51.162;13.906;2022-08-03T00:30:20;1.57;;;1.47;;
8885;SDS011;4479;51.162;13.906;2022-08-03T00:40:25;2.20;;;1.83;;
8885;SDS011;4479;51.162;13.906;2022-08-03T00:50:29;2.70;;;1.70;;
8885;SDS011;4479;51.162;13.906;2022-08-03T01:00:37;2.53;;;1.87;;
8885;SDS011;4479;51.162;13.906;2022-08-03T01:10:46;3.53;;;1.90;;
8885;SDS011;4479;51.162;13.906;2022-08-03T01:20:57;1.90;;;1.80;;
8885;SDS011;4479;51.162;13.906;2022-08-03T01:31:07;2.83;;;2.10;;
8885;SDS011;4479;51.162;13.906;2022-08-03T01:41:14;4.50;;;2.30;;
8885;SDS011;4479;51.162;13.906;2022-08-03T01:51:22;3.73;;;2.27;;
8885;SDS011;4479;51.162;13.906;2022-08-03T02:01:28;2.43;;;2.23;;
8885;SDS011;4479;51.162;13.906;2022-08-03T02:11:35;2.60;;;2.40;;
8885;SDS011;4479;51.162;13.906;2022-08-03T02:21:40;3.40;;;2.80;;
8885;SDS011;4479;51.162;13.906;2022-08-03T02:31:46;6.47;;;3.13;;
8885;SDS011;4479;51.162;13.906;2022-08-03T02:41:51;3.97;;;3.00;;
8885;SDS011;4479;51.162;13.906;2022-08-03T02:52:03;2.73;;;2.53;;
8885;SDS011;4479;51.162;13.906;2022-08-03T03:02:10;3.20;;;2.77;;
8885;SDS011;4479;51.162;13.906;2022-08-03T03:12:16;3.20;;;2.90;;
8885;SDS011;4479;51.162;13.906;2022-08-03T03:22:22;3.27;;;2.97;;
8885;SDS011;4479;51.162;13.906;2022-08-03T03:32:28;3.70;;;3.40;;
8885;SDS011;4479;51.162;13.906;2022-08-03T03:42:31;4.33;;;2.97;;
8885;SDS011;4479;51.162;13.906;2022-08-03T03:52:35;3.50;;;2.87;;
8885;SDS011;4479;51.162;13.906;2022-08-03T04:02:38;2.97;;;2.70;;
8885;SDS011;4479;51.162;13.906;2022-08-03T04:12:42;3.07;;;2.33;;
8885;SDS011;4479;51.162;13.906;2022-08-03T04:22:45;2.60;;;2.40;;
8885;SDS011;4479;51.162;13.906;2022-08-03T04:32:51;2.80;;;2.50;;
8885;SDS011;4479;51.162;13.906;2022-08-03T04:42:55;2.40;;;2.20;;
8885;SDS011;4479;51.162;13.906;2022-08-03T04:53:00;2.40;;;2.20;;
8885;SDS011;4479;51.162;13.906;2022-08-03T05:03:04;2.53;;;2.33;;
8885;SDS011;4479;51.162;13.906;2022-08-03T05:13:09;2.50;;;2.30;;
8885;SDS011;4479;51.162;13.906;2022-08-03T05:23:13;3.20;;;2.27;;
8885;SDS011;4479;51.162;13.906;2022-08-03T05:33:18;2.83;;;2.27;;
8885;SDS011;4479;51.162;13.906;2022-08-03T05:43:22;2.00;;;1.90;;
8885;SDS011;4479;51.162;13.906;2022-08-03T05:53:27;2.40;;;2.20;;
8885;SDS011;4479;51.162;13.906;2022-08-03T06:03:34;2.27;;;2.13;;
8885;SDS011;4479;51.162;13.906;2022-08-03T06:13:39;2.13;;;2.03;;
8885;SDS011;4479;51.162;13.906;2022-08-03T06:23:43;2.23;;;2.03;;
8885;SDS011;4479;51.162;13.906;2022-08-03T06:33:49;3.77;;;1.60;;
8885;SDS011;4479;51.162;13.906;2022-08-03T06:43:52;2.80;;;1.87;;
8885;SDS011;4479;51.162;13.906;2022-08-03T06:53:58;1.80;;;1.70;;
8885;SDS011;4479;51.162;13.906;2022-08-03T07:04:01;1.80;;;1.70;;
8885;SDS011;4479;51.162;13.906;2022-08-03T07:14:07;2.03;;;1.70;;
8885;SDS011;4479;51.162;13.906;2022-08-03T07:24:10;1.73;;;1.63;;
8885;SDS011;4479;51.162;13.906;2022-08-03T07:34:15;1.83;;;1.73;;
8885;SDS011;4479;51.162;13.906;2022-08-03T07:44:19;2.00;;;1.77;;
8885;SDS011;4479;51.162;13.906;2022-08-03T07:54:24;2.20;;;1.80;;
8885;SDS011;4479;51.162;13.906;2022-08-03T08:04:28;3.67;;;1.70;;
8885;SDS011;4479;51.162;13.906;2022-08-03T08:14:33;2.70;;;1.90;;
8885;SDS011;4479;51.162;13.906;2022-08-03T08:24:36;3.10;;;2.00;;
8885;SDS011;4479;51.162;13.906;2022-08-03T08:34:42;2.50;;;1.60;;
8885;SDS011;4479;51.162;13.906;2022-08-03T08:44:45;1.93;;;1.70;;
8885;SDS011;4479;51.162;13.906;2022-08-03T08:54:51;2.07;;;1.73;;
8885;SDS011;4479;51.162;13.906;2022-08-03T09:04:55;3.33;;;1.73;;
8885;SDS011;4479;51.162;13.906;2022-08-03T09:15:08;2.53;;;1.83;;
8885;SDS011;4479;51.162;13.906;2022-08-03T09:25:25;1.97;;;1.57;;
8885;SDS011;4479;51.162;13.906;2022-08-03T09:35:40;2.20;;;1.63;;
8885;SDS011;4479;51.162;13.906;2022-08-03T09:45:44;2.20;;;1.50;;
8885;SDS011;4479;51.162;13.906;2022-08-03T09:55:56;1.90;;;1.80;;
8885;SDS011;4479;51.162;13.906;2022-08-03T10:06:12;1.70;;;1.60;;
8885;SDS011;4479;51.162;13.906;2022-08-03T10:16:18;2.60;;;1.93;;
8885;SDS011;4479;51.162;13.906;2022-08-03T10:26:22;2.70;;;1.67;;
8885;SDS011;4479;51.162;13.906;2022-08-03T10:36:30;3.30;;;1.90;;
8885;SDS011;4479;51.162;13.906;2022-08-03T10:46:34;4.47;;;1.83;;
8885;SDS011;4479;51.162;13.906;2022-08-03T10:56:42;2.20;;;2.10;;
8885;SDS011;4479;51.162;13.906;2022-08-03T11:07:18;2.73;;;2.53;;
8885;SDS011;4479;51.162;13.906;2022-08-03T11:17:25;1.80;;;1.70;;
8885;SDS011;4479;51.162;13.906;2022-08-03T11:27:32;1.73;;;1.63;;
8885;SDS011;4479;51.162;13.906;2022-08-03T11:38:00;1.60;;;1.50;;
8885;SDS011;4479;51.162;13.906;2022-08-03T11:48:14;1.70;;;1.60;;
8885;SDS011;4479;51.162;13.906;2022-08-03T11:58:21;1.63;;;1.53;;
8885;SDS011;4479;51.162;13.906;2022-08-03T14:04:37;1.63;;;1.53;;
8885;SDS011;4479;51.162;13.906;2022-08-03T14:14:40;1.47;;;1.37;;
8885;SDS011;4479;51.162;13.906;2022-08-03T14:24:45;1.50;;;1.40;;
8885;SDS011;4479;51.162;13.906;2022-08-03T14:34:49;1.80;;;1.70;;
8885;SDS011;4479;51.162;13.906;2022-08-03T14:44:54;2.77;;;1.70;;
8885;SDS011;4479;51.162;13.906;2022-08-03T14:54:58;1.63;;;1.53;;
8885;SDS011;4479;51.162;13.906;2022-08-03T15:05:04;2.77;;;1.37;;
8885;SDS011;4479;51.162;13.906;2022-08-03T15:15:10;1.27;;;1.27;;
8885;SDS011;4479;51.162;13.906;2022-08-03T15:25:15;1.50;;;1.40;;
8885;SDS011;4479;51.162;13.906;2022-08-03T15:35:19;1.50;;;1.40;;
8885;SDS011;4479;51.162;13.906;2022-08-03T15:45:24;2.00;;;1.50;;
8885;SDS011;4479;51.162;13.906;2022-08-03T15:55:28;4.20;;;1.60;;
8885;SDS011;4479;51.162;13.906;2022-08-03T16:05:33;1.50;;;1.40;;
8885;SDS011;4479;51.162;13.906;2022-08-03T16:15:37;1.50;;;1.40;;
8885;SDS011;4479;51.162;13.906;2022-08-03T16:25:42;1.67;;;1.50;;
8885;SDS011;4479;51.162;13.906;2022-08-03T16:35:47;1.60;;;1.50;;
8885;SDS011;4479;51.162;13.906;2022-08-03T16:45:51;1.57;;;1.40;;
8885;SDS011;4479;51.162;13.906;2022-08-03T16:55:55;1.77;;;1.67;;
8885;SDS011;4479;51.162;13.906;2022-08-03T17:06:00;1.80;;;1.50;;
8885;SDS011;4479;51.162;13.906;2022-08-03T17:16:04;1.63;;;1.30;;
8885;SDS011;4479;51.162;13.906;2022-08-03T17:26:13;1.60;;;1.50;;
8885;SDS011;4479;51.162;13.906;2022-08-03T17:36:20;1.70;;;1.40;;
8885;SDS011;4479;51.162;13.906;2022-08-03T17:46:26;1.70;;;1.60;;
8885;SDS011;4479;51.162;13.906;2022-08-03T17:56:31;1.43;;;1.33;;
8885;SDS011;4479;51.162;13.906;2022-08-03T18:06:41;3.70;;;1.67;;
8885;SDS011;4479;51.162;13.906;2022-08-03T18:16:54;4.03;;;1.70;;
8885;SDS011;4479;51.162;13.906;2022-08-03T18:27:01;4.10;;;2.03;;
8885;SDS011;4479;51.162;13.906;2022-08-03T18:37:05;55.37;;;4.37;;
8885;SDS011;4479;51.162;13.906;2022-08-03T18:57:37;40.47;;;3.83;;
8885;SDS011;4479;51.162;13.906;2022-08-03T19:07:47;23.67;;;3.07;;
8885;SDS011;4479;51.162;13.906;2022-08-03T19:17:57;2.30;;;1.70;;
8885;SDS011;4479;51.162;13.906;2022-08-03T19:28:01;2.33;;;2.00;;
8885;SDS011;4479;51.162;13.906;2022-08-03T19:38:05;2.03;;;1.90;;
8885;SDS011;4479;51.162;13.906;2022-08-03T19:48:11;3.50;;;1.80;;
8885;SDS011;4479;51.162;13.906;2022-08-03T19:58:15;3.63;;;1.70;;
8885;SDS011;4479;51.162;13.906;2022-08-03T20:08:21;2.43;;;1.70;;
8885;SDS011;4479;51.162;13.906;2022-08-03T20:18:26;1.70;;;1.60;;
8885;SDS011;4479;51.162;13.906;2022-08-03T20:28:32;1.90;;;1.53;;
8885;SDS011;4479;51.162;13.906;2022-08-03T20:38:42;1.80;;;1.70;;
8885;SDS011;4479;51.162;13.906;2022-08-03T20:48:46;1.80;;;1.70;;
8885;SDS011;4479;51.162;13.906;2022-08-03T20:58:49;2.37;;;1.60;;
8885;SDS011;4479;51.162;13.906;2022-08-03T21:08:55;2.30;;;2.10;;
8885;SDS011;4479;51.162;13.906;2022-08-03T21:19:04;1.93;;;1.73;;
8885;SDS011;4479;51.162;13.906;2022-08-03T23:34:09;2.57;;;2.37;;
8885;SDS011;4479;51.162;13.906;2022-08-03T23:44:32;2.50;;;2.27;;
8885;SDS011;4479;51.162;13.906;2022-08-03T23:54:42;3.07;;;2.50;;
